Time;durP1;ratioP1;P1;durP2;ratioP2;P2;SDS_P1;SDS_P2;PMS_P1;PMS_P2;Temp;Humidity;BMP_temperature;BMP_pressure;BME280_temperature;BME280_humidity;BME280_pressure;Samples;Min_cycle;Max_cycle;Signal;HPM_P1;HPM_P2
2021/07/29 00:01:51;;;;;;;569.05;452.20;;;;;;;;;;4979463;28;20496;-75
2021/07/29 00:04:17;;;;;;;562.15;440.13;;;;;;;;;;4956770;28;20550;-73
2021/07/29 00:06:43;;;;;;;563.38;444.38;;;;;;;;;;4960728;28;20647;-75
2021/07/29 00:09:09;;;;;;;562.85;441.77;;;;;;;;;;4973517;28;20100;-75
2021/07/29 00:11:35;;;;;;;562.35;442.25;;;;;;;;;;4974953;28;20027;-75
2021/07/29 00:14:02;;;;;;;560.40;432.58;;;;;;;;;;4955467;28;20026;-74
2021/07/29 00:16:31;;;;;;;565.58;444.55;;;;;;;;;;4970309;28;20023;-74
2021/07/29 00:19:05;;;;;;;566.45;446.48;;;;;;;;;;4957256;28;20561;-74
2021/07/29 00:21:34;;;;;;;567.63;442.98;;;;;;;;;;4974007;28;20096;-75
2021/07/29 00:24:00;;;;;;;564.85;441.35;;;;;;;;;;4970384;28;20417;-74
2021/07/29 00:26:27;;;;;;;563.42;438.13;;;;;;;;;;4968241;28;20045;-75
2021/07/29 00:28:53;;;;;;;565.97;440.15;;;;;;;;;;4960050;28;20359;-74
2021/07/29 00:31:18;;;;;;;566.08;444.23;;;;;;;;;;4971270;28;20045;-75
2021/07/29 00:33:44;;;;;;;566.42;445.00;;;;;;;;;;4972495;28;20030;-74
2021/07/29 00:36:19;;;;;;;568.45;448.13;;;;;;;;;;4963261;28;20023;-74
2021/07/29 00:38:45;;;;;;;565.38;442.58;;;;;;;;;;4956640;28;20627;-75
2021/07/29 00:41:11;;;;;;;564.70;442.88;;;;;;;;;;4973246;28;20061;-75
2021/07/29 00:43:37;;;;;;;567.42;442.85;;;;;;;;;;4957315;28;20080;-75
2021/07/29 00:46:03;;;;;;;563.17;441.42;;;;;;;;;;4964309;28;20060;-76
2021/07/29 00:48:29;;;;;;;561.95;442.42;;;;;;;;;;4963461;28;20038;-75
2021/07/29 00:50:55;;;;;;;560.47;434.35;;;;;;;;;;4954980;28;20027;-75
2021/07/29 00:53:21;;;;;;;566.45;445.75;;;;;;;;;;4974339;28;20034;-74
2021/07/29 00:55:47;;;;;;;558.92;434.20;;;;;;;;;;4968602;28;20023;-75
2021/07/29 00:58:13;;;;;;;562.42;440.35;;;;;;;;;;4975059;28;20620;-75
2021/07/29 01:00:39;;;;;;;566.50;440.75;;;;;;;;;;4978531;28;20070;-75
2021/07/29 01:03:05;;;;;;;562.30;437.65;;;;;;;;;;4974051;28;20026;-75
2021/07/29 01:05:31;;;;;;;562.75;439.83;;;;;;;;;;4974937;28;20508;-75
2021/07/29 01:07:57;;;;;;;562.08;440.88;;;;;;;;;;4975224;28;20038;-74
2021/07/29 01:10:23;;;;;;;563.47;441.50;;;;;;;;;;4957579;28;20037;-75
2021/07/29 01:12:49;;;;;;;561.67;442.02;;;;;;;;;;4973153;28;20039;-74
2021/07/29 01:15:15;;;;;;;560.60;436.33;;;;;;;;;;4975756;28;20541;-75
2021/07/29 01:17:41;;;;;;;559.72;438.30;;;;;;;;;;4974438;28;20034;-75
2021/07/29 01:20:08;;;;;;;558.58;432.40;;;;;;;;;;4972350;28;20034;-74
2021/07/29 01:22:35;;;;;;;563.53;436.45;;;;;;;;;;4954753;28;20376;-75
2021/07/29 01:25:01;;;;;;;562.03;432.88;;;;;;;;;;4955503;28;20039;-74
2021/07/29 01:27:30;;;;;;;563.08;436.90;;;;;;;;;;4972270;28;20427;-75
2021/07/29 01:30:05;;;;;;;565.00;443.15;;;;;;;;;;4976523;28;20022;-75
2021/07/29 01:32:31;;;;;;;562.13;435.65;;;;;;;;;;4967201;28;20027;-75
2021/07/29 01:34:58;;;;;;;563.08;439.67;;;;;;;;;;4973545;28;20033;-74
2021/07/29 01:37:24;;;;;;;562.22;435.40;;;;;;;;;;4976080;28;20449;-75
2021/07/29 01:39:50;;;;;;;561.47;433.05;;;;;;;;;;4968744;28;20456;-74
2021/07/29 01:42:16;;;;;;;564.22;436.00;;;;;;;;;;4970595;28;20023;-75
2021/07/29 01:44:42;;;;;;;565.88;439.20;;;;;;;;;;4973922;28;20488;-76
2021/07/29 01:47:08;;;;;;;564.60;438.42;;;;;;;;;;4979035;28;20254;-75
2021/07/29 01:49:34;;;;;;;567.80;440.85;;;;;;;;;;4958734;28;20027;-75
2021/07/29 01:52:00;;;;;;;564.20;437.95;;;;;;;;;;4975749;28;20034;-74
2021/07/29 01:54:26;;;;;;;565.25;436.60;;;;;;;;;;4972316;28;20436;-74
2021/07/29 01:56:52;;;;;;;566.40;439.70;;;;;;;;;;4953338;28;20062;-74
2021/07/29 01:59:18;;;;;;;567.00;438.10;;;;;;;;;;4970256;28;20605;-75
2021/07/29 02:01:44;;;;;;;566.88;442.88;;;;;;;;;;4968594;28;20054;-75
2021/07/29 02:04:10;;;;;;;568.65;443.92;;;;;;;;;;4970837;28;20054;-75
2021/07/29 02:06:37;;;;;;;568.90;445.33;;;;;;;;;;4956832;28;20034;-76
2021/07/29 02:09:04;;;;;;;567.50;434.90;;;;;;;;;;4976330;28;20104;-76
2021/07/29 02:11:33;;;;;;;564.45;436.85;;;;;;;;;;4976406;28;20238;-75
2021/07/29 02:14:00;;;;;;;568.60;447.65;;;;;;;;;;4963434;28;20337;-75
2021/07/29 02:16:26;;;;;;;562.47;436.10;;;;;;;;;;4972542;28;20015;-75
2021/07/29 02:18:52;;;;;;;565.28;439.38;;;;;;;;;;4963528;28;20121;-76
2021/07/29 02:21:18;;;;;;;567.33;443.80;;;;;;;;;;4972144;28;20056;-75
2021/07/29 02:23:45;;;;;;;569.75;446.35;;;;;;;;;;4965099;28;20704;-75
2021/07/29 02:26:11;;;;;;;565.03;437.90;;;;;;;;;;4975060;28;20402;-76
2021/07/29 02:28:37;;;;;;;565.90;440.38;;;;;;;;;;4961215;28;20022;-75
2021/07/29 02:31:04;;;;;;;564.15;437.70;;;;;;;;;;4962273;28;20031;-75
2021/07/29 02:33:30;;;;;;;569.00;446.35;;;;;;;;;;4978207;28;20041;-76
2021/07/29 02:35:56;;;;;;;563.72;431.77;;;;;;;;;;4956241;28;20031;-76
2021/07/29 02:38:22;;;;;;;567.88;444.63;;;;;;;;;;4961364;28;20380;-76
2021/07/29 02:40:48;;;;;;;565.15;437.00;;;;;;;;;;4972065;28;20046;-75
2021/07/29 02:43:14;;;;;;;565.78;437.92;;;;;;;;;;4976773;28;20417;-75
2021/07/29 02:45:40;;;;;;;567.10;439.95;;;;;;;;;;4971572;28;20085;-76
2021/07/29 02:48:06;;;;;;;566.22;443.42;;;;;;;;;;4976439;28;20365;-75
2021/07/29 02:50:32;;;;;;;566.53;435.30;;;;;;;;;;4974591;28;20099;-75
2021/07/29 02:52:59;;;;;;;559.50;431.55;;;;;;;;;;4967745;28;20030;-75
2021/07/29 02:55:26;;;;;;;559.72;435.17;;;;;;;;;;4976929;28;20030;-76
2021/07/29 02:57:53;;;;;;;559.28;435.58;;;;;;;;;;4972689;28;20031;-75
2021/07/29 03:00:19;;;;;;;559.53;434.15;;;;;;;;;;4974512;28;20101;-76
2021/07/29 03:02:45;;;;;;;557.90;436.85;;;;;;;;;;4975250;28;20023;-76
2021/07/29 03:05:10;;;;;;;559.60;436.63;;;;;;;;;;4974095;28;20147;-75
2021/07/29 03:07:36;;;;;;;557.30;429.20;;;;;;;;;;4974592;28;20101;-75
2021/07/29 03:10:02;;;;;;;564.50;443.08;;;;;;;;;;4973002;28;20511;-76
2021/07/29 03:12:31;;;;;;;558.08;426.38;;;;;;;;;;4972224;28;20092;-75
2021/07/29 03:14:57;;;;;;;560.88;431.88;;;;;;;;;;4978263;28;20111;-75
2021/07/29 03:17:23;;;;;;;560.47;424.63;;;;;;;;;;4956231;28;20073;-75
2021/07/29 03:19:49;;;;;;;560.85;428.08;;;;;;;;;;4974739;28;20034;-75
2021/07/29 03:22:15;;;;;;;562.85;429.90;;;;;;;;;;4957416;28;20041;-75
2021/07/29 03:24:41;;;;;;;558.53;422.70;;;;;;;;;;4976838;28;20152;-75
2021/07/29 03:27:07;;;;;;;561.38;429.20;;;;;;;;;;4975310;28;20110;-76
2021/07/29 03:29:33;;;;;;;563.13;429.35;;;;;;;;;;4977888;28;20057;-75
2021/07/29 03:31:59;;;;;;;558.65;425.48;;;;;;;;;;4969123;28;20026;-76
2021/07/29 03:34:25;;;;;;;558.17;424.05;;;;;;;;;;4957577;28;20050;-76
2021/07/29 03:36:51;;;;;;;560.17;425.48;;;;;;;;;;4976451;28;20031;-75
2021/07/29 03:39:17;;;;;;;563.08;428.98;;;;;;;;;;4985735;28;20034;-75
2021/07/29 03:41:43;;;;;;;561.78;425.42;;;;;;;;;;4971938;28;20070;-75
2021/07/29 03:44:09;;;;;;;561.35;430.17;;;;;;;;;;4974764;28;20058;-74
2021/07/29 03:46:34;;;;;;;559.08;425.90;;;;;;;;;;4972283;28;20034;-75
2021/07/29 03:49:01;;;;;;;558.63;424.80;;;;;;;;;;4980714;28;20023;-76
2021/07/29 03:51:26;;;;;;;559.00;423.85;;;;;;;;;;4969068;28;20072;-74
2021/07/29 03:53:52;;;;;;;560.40;428.38;;;;;;;;;;4976276;28;20054;-75
2021/07/29 03:56:18;;;;;;;558.85;422.10;;;;;;;;;;4977387;28;20437;-76
2021/07/29 03:58:44;;;;;;;562.38;427.25;;;;;;;;;;4969713;28;20102;-75
2021/07/29 04:01:11;;;;;;;559.17;422.60;;;;;;;;;;4954633;28;20141;-75
2021/07/29 04:03:37;;;;;;;559.03;423.42;;;;;;;;;;4977545;28;20348;-76
2021/07/29 04:06:03;;;;;;;558.30;420.75;;;;;;;;;;4959368;28;20448;-75
2021/07/29 04:08:29;;;;;;;560.90;426.52;;;;;;;;;;4978277;28;20060;-75
2021/07/29 04:10:58;;;;;;;560.20;423.70;;;;;;;;;;4952337;28;20055;-75
2021/07/29 04:13:24;;;;;;;560.03;423.33;;;;;;;;;;4973151;28;20031;-74
2021/07/29 04:16:04;;;;;;;560.28;421.65;;;;;;;;;;4993785;28;20132;-75
2021/07/29 04:18:33;;;;;;;558.53;419.40;;;;;;;;;;4976958;28;20026;-75
2021/07/29 04:21:02;;;;;;;559.65;427.15;;;;;;;;;;4964992;28;20134;-74
2021/07/29 04:23:28;;;;;;;556.33;413.98;;;;;;;;;;4970782;28;20022;-74
2021/07/29 04:25:54;;;;;;;556.83;413.88;;;;;;;;;;4960660;28;20019;-75
2021/07/29 04:28:20;;;;;;;553.42;406.15;;;;;;;;;;4974286;28;20369;-75
2021/07/29 04:30:46;;;;;;;556.38;414.90;;;;;;;;;;4975322;28;20022;-75
2021/07/29 04:33:12;;;;;;;556.95;418.67;;;;;;;;;;4988518;28;20099;-76
2021/07/29 04:35:39;;;;;;;559.58;422.27;;;;;;;;;;4971915;28;20509;-75
2021/07/29 04:38:05;;;;;;;559.10;420.65;;;;;;;;;;4963071;28;20529;-76
2021/07/29 04:40:31;;;;;;;556.83;410.73;;;;;;;;;;4962509;28;20065;-75
2021/07/29 04:42:56;;;;;;;558.30;418.55;;;;;;;;;;4972948;28;20104;-75
2021/07/29 04:45:22;;;;;;;558.53;419.60;;;;;;;;;;4980812;28;20026;-75
2021/07/29 04:47:48;;;;;;;553.88;406.88;;;;;;;;;;5031143;28;20066;-75
2021/07/29 04:50:14;;;;;;;556.33;415.02;;;;;;;;;;5026954;28;20096;-74
2021/07/29 04:52:40;;;;;;;559.67;424.27;;;;;;;;;;5019048;28;20033;-76
2021/07/29 04:55:06;;;;;;;558.63;418.15;;;;;;;;;;4969132;28;20027;-75
2021/07/29 04:57:33;;;;;;;560.70;421.08;;;;;;;;;;4973001;28;20428;-75
2021/07/29 04:59:59;;;;;;;558.03;418.38;;;;;;;;;;4979546;28;20054;-75
2021/07/29 05:02:25;;;;;;;557.15;423.50;;;;;;;;;;5004176;28;20037;-75
2021/07/29 05:04:53;;;;;;;558.55;424.90;;;;;;;;;;4971182;28;20030;-78
2021/07/29 05:07:19;;;;;;;561.05;431.95;;;;;;;;;;4972535;28;20023;-76
2021/07/29 05:09:45;;;;;;;558.78;424.25;;;;;;;;;;4952884;28;20023;-75
2021/07/29 05:12:11;;;;;;;561.03;426.08;;;;;;;;;;4973660;28;20031;-75
2021/07/29 05:14:37;;;;;;;555.45;417.30;;;;;;;;;;4968907;28;20102;-75
2021/07/29 05:17:04;;;;;;;557.80;422.15;;;;;;;;;;4961733;28;20510;-75
2021/07/29 05:19:30;;;;;;;556.42;416.90;;;;;;;;;;4964048;28;20031;-75
2021/07/29 05:21:56;;;;;;;559.63;427.73;;;;;;;;;;4978787;28;20040;-75
2021/07/29 05:24:22;;;;;;;558.55;423.83;;;;;;;;;;5024736;28;20049;-75
2021/07/29 05:26:48;;;;;;;561.53;433.25;;;;;;;;;;5002434;28;20022;-75
2021/07/29 05:29:14;;;;;;;555.83;417.98;;;;;;;;;;5009724;28;20027;-75
2021/07/29 05:31:41;;;;;;;558.88;424.98;;;;;;;;;;5012396;28;20035;-75
2021/07/29 05:34:11;;;;;;;558.92;423.02;;;;;;;;;;5020265;28;20026;-75
2021/07/29 05:36:37;;;;;;;558.35;423.50;;;;;;;;;;4998437;28;20076;-75
2021/07/29 05:39:04;;;;;;;556.60;416.55;;;;;;;;;;5011135;28;20023;-75
2021/07/29 05:41:30;;;;;;;557.15;423.02;;;;;;;;;;5035399;28;20032;-75
2021/07/29 05:43:56;;;;;;;559.17;422.90;;;;;;;;;;4976983;28;20092;-75
2021/07/29 05:46:22;;;;;;;559.35;429.23;;;;;;;;;;4975453;28;20039;-75
2021/07/29 05:48:48;;;;;;;577.13;428.30;;;;;;;;;;4981228;28;20018;-75
2021/07/29 05:51:14;;;;;;;559.08;425.40;;;;;;;;;;4966276;28;20031;-75
2021/07/29 05:53:40;;;;;;;559.38;430.75;;;;;;;;;;4975134;28;20065;-75
2021/07/29 05:56:06;;;;;;;556.92;420.92;;;;;;;;;;4964579;28;20130;-76
2021/07/29 05:58:32;;;;;;;558.03;427.70;;;;;;;;;;4975951;28;20026;-75
2021/07/29 06:00:58;;;;;;;558.50;428.15;;;;;;;;;;4972029;28;20094;-75
2021/07/29 06:03:24;;;;;;;557.55;433.90;;;;;;;;;;4974365;28;20113;-75
2021/07/29 06:05:55;;;;;;;557.85;430.30;;;;;;;;;;4955968;28;20029;-76
2021/07/29 06:08:21;;;;;;;556.90;429.92;;;;;;;;;;4960422;28;20034;-75
2021/07/29 06:10:47;;;;;;;555.75;426.33;;;;;;;;;;4980439;28;20034;-75
2021/07/29 06:13:13;;;;;;;555.58;432.73;;;;;;;;;;4968576;28;20030;-76
2021/07/29 06:15:39;;;;;;;556.58;428.23;;;;;;;;;;4973057;28;20037;-75
2021/07/29 06:18:09;;;;;;;561.42;442.83;;;;;;;;;;4958529;28;20071;-77
2021/07/29 06:20:35;;;;;;;554.75;422.45;;;;;;;;;;4975896;28;20039;-75
2021/07/29 06:23:01;;;;;;;556.50;432.13;;;;;;;;;;4974883;28;20034;-76
2021/07/29 06:25:27;;;;;;;559.55;438.13;;;;;;;;;;4973256;28;20039;-75
2021/07/29 06:27:53;;;;;;;557.85;435.35;;;;;;;;;;4976654;28;20027;-77
2021/07/29 06:30:19;;;;;;;554.60;428.83;;;;;;;;;;4955046;28;20023;-76
2021/07/29 06:32:45;;;;;;;560.88;429.13;;;;;;;;;;4975362;28;20023;-76
2021/07/29 06:35:12;;;;;;;555.05;434.27;;;;;;;;;;4966503;28;20030;-75
2021/07/29 06:37:38;;;;;;;559.50;446.27;;;;;;;;;;4964437;28;20062;-77
2021/07/29 06:40:04;;;;;;;555.92;440.20;;;;;;;;;;4960205;28;20038;-75
2021/07/29 06:42:30;;;;;;;556.00;436.27;;;;;;;;;;4955000;28;20023;-75
2021/07/29 06:44:56;;;;;;;557.83;439.33;;;;;;;;;;4974457;28;20026;-74
2021/07/29 06:47:23;;;;;;;557.10;444.65;;;;;;;;;;4976342;28;20545;-74
2021/07/29 06:49:50;;;;;;;554.53;437.42;;;;;;;;;;4977211;28;20031;-74
2021/07/29 06:52:15;;;;;;;553.83;435.60;;;;;;;;;;4973644;28;20018;-75
2021/07/29 06:54:41;;;;;;;559.45;451.50;;;;;;;;;;4957207;28;20068;-74
2021/07/29 06:57:08;;;;;;;556.63;442.25;;;;;;;;;;4968169;28;20030;-74
2021/07/29 06:59:34;;;;;;;553.55;435.40;;;;;;;;;;4974611;28;20069;-74
2021/07/29 07:02:00;;;;;;;556.97;445.10;;;;;;;;;;4976130;28;20034;-75
2021/07/29 07:04:26;;;;;;;554.00;442.20;;;;;;;;;;4975380;28;20030;-75
2021/07/29 07:06:52;;;;;;;553.97;441.85;;;;;;;;;;4972977;28;20031;-74
2021/07/29 07:09:18;;;;;;;554.65;443.05;;;;;;;;;;4962111;28;20054;-75
2021/07/29 07:11:44;;;;;;;553.92;441.95;;;;;;;;;;4971520;28;20058;-75
2021/07/29 07:14:10;;;;;;;557.00;448.60;;;;;;;;;;4976802;28;20125;-74
2021/07/29 07:16:37;;;;;;;557.10;450.08;;;;;;;;;;4956113;28;20457;-75
2021/07/29 07:19:06;;;;;;;555.13;449.08;;;;;;;;;;4966785;28;20062;-81
2021/07/29 07:21:32;;;;;;;559.28;455.08;;;;;;;;;;4953232;28;20039;-80
2021/07/29 07:23:59;;;;;;;554.33;445.58;;;;;;;;;;4960784;28;20042;-79
2021/07/29 07:26:27;;;;;;;554.20;441.50;;;;;;;;;;4963642;28;20125;-76
2021/07/29 07:28:53;;;;;;;552.65;439.88;;;;;;;;;;4974919;28;20486;-79
2021/07/29 07:31:19;;;;;;;553.33;446.60;;;;;;;;;;4957764;28;20034;-81
2021/07/29 07:33:46;;;;;;;554.42;450.48;;;;;;;;;;4965020;28;20022;-80
2021/07/29 07:36:12;;;;;;;556.88;443.25;;;;;;;;;;4953052;28;20526;-74
2021/07/29 07:38:38;;;;;;;554.13;448.15;;;;;;;;;;4971647;28;20133;-75
2021/07/29 07:41:07;;;;;;;553.10;443.95;;;;;;;;;;4969546;28;20129;-74
2021/07/29 07:43:33;;;;;;;571.23;459.47;;;;;;;;;;4970478;28;20019;-75
2021/07/29 07:46:00;;;;;;;556.30;453.42;;;;;;;;;;4963925;28;20088;-75
2021/07/29 07:48:26;;;;;;;556.95;454.75;;;;;;;;;;4971610;28;20533;-75
2021/07/29 07:50:53;;;;;;;560.40;462.77;;;;;;;;;;4966899;28;20037;-74
2021/07/29 07:53:21;;;;;;;552.67;443.48;;;;;;;;;;4957796;28;20092;-76
2021/07/29 07:55:47;;;;;;;559.17;460.00;;;;;;;;;;4969726;28;20034;-75
2021/07/29 07:58:13;;;;;;;558.47;460.60;;;;;;;;;;4970439;28;20057;-76
2021/07/29 08:00:39;;;;;;;557.70;460.95;;;;;;;;;;4964178;28;20065;-75
2021/07/29 08:03:05;;;;;;;553.38;454.13;;;;;;;;;;4974024;28;20027;-76
2021/07/29 08:05:31;;;;;;;558.40;465.33;;;;;;;;;;4977719;28;20054;-75
2021/07/29 08:07:59;;;;;;;551.72;448.48;;;;;;;;;;4962084;28;20052;-75
2021/07/29 08:10:28;;;;;;;559.20;467.10;;;;;;;;;;4975183;28;20050;-76
2021/07/29 08:12:54;;;;;;;559.20;462.42;;;;;;;;;;4976133;28;20521;-75
2021/07/29 08:15:20;;;;;;;556.22;460.50;;;;;;;;;;4966090;28;20088;-76
2021/07/29 08:17:46;;;;;;;555.50;461.98;;;;;;;;;;4959405;28;20035;-77
2021/07/29 08:20:12;;;;;;;556.72;465.10;;;;;;;;;;4967070;28;20497;-75
2021/07/29 08:22:38;;;;;;;552.83;459.08;;;;;;;;;;4972417;28;20099;-75
2021/07/29 08:25:04;;;;;;;555.53;464.35;;;;;;;;;;4962188;28;20050;-76
2021/07/29 08:27:34;;;;;;;553.63;460.95;;;;;;;;;;4978567;28;20073;-75
2021/07/29 08:30:00;;;;;;;555.30;461.80;;;;;;;;;;4973865;28;20367;-75
2021/07/29 08:32:27;;;;;;;555.22;459.25;;;;;;;;;;4980110;28;20075;-75
2021/07/29 08:34:53;;;;;;;551.83;455.50;;;;;;;;;;4977041;28;20025;-76
2021/07/29 08:37:19;;;;;;;553.38;457.38;;;;;;;;;;4962316;28;20027;-77
2021/07/29 08:39:45;;;;;;;554.25;457.77;;;;;;;;;;4973385;28;20026;-74
2021/07/29 08:42:11;;;;;;;552.22;456.83;;;;;;;;;;4960696;28;20041;-75
2021/07/29 08:44:38;;;;;;;555.15;460.17;;;;;;;;;;4971080;28;20483;-75
2021/07/29 08:47:05;;;;;;;554.47;466.98;;;;;;;;;;4961318;28;20022;-75
2021/07/29 08:49:32;;;;;;;555.00;463.58;;;;;;;;;;4956035;28;20033;-76
2021/07/29 08:51:58;;;;;;;559.00;473.65;;;;;;;;;;4972340;28;20019;-76
2021/07/29 08:54:24;;;;;;;555.85;471.63;;;;;;;;;;4972392;28;20106;-76
2021/07/29 08:56:49;;;;;;;558.13;474.90;;;;;;;;;;4964993;28;20095;-75
2021/07/29 08:59:15;;;;;;;558.08;479.70;;;;;;;;;;4956766;28;20043;-75
2021/07/29 09:01:45;;;;;;;561.15;483.60;;;;;;;;;;4973094;28;20049;-75
2021/07/29 09:04:12;;;;;;;557.30;478.90;;;;;;;;;;4974413;28;20019;-76
2021/07/29 09:06:57;;;;;;;558.25;481.27;;;;;;;;;;4958717;28;20038;-75
2021/07/29 09:09:39;;;;;;;557.72;477.85;;;;;;;;;;4974500;28;20396;-76
2021/07/29 09:12:24;;;;;;;561.80;481.23;;;;;;;;;;4973464;28;20037;-75
2021/07/29 09:14:51;;;;;;;559.85;483.63;;;;;;;;;;4969819;28;20026;-75
2021/07/29 09:17:19;;;;;;;557.05;480.33;;;;;;;;;;4976463;28;20031;-75
2021/07/29 09:19:46;;;;;;;558.38;484.25;;;;;;;;;;4961738;28;20411;-74
2021/07/29 09:22:19;;;;;;;560.85;493.30;;;;;;;;;;4979782;28;20711;-74
2021/07/29 09:25:01;;;;;;;560.65;490.42;;;;;;;;;;4968550;28;20436;-75
2021/07/29 09:27:40;;;;;;;562.42;499.63;;;;;;;;;;4963674;28;20035;-75
2021/07/29 09:30:25;;;;;;;561.53;499.53;;;;;;;;;;4962802;28;20026;-74
2021/07/29 09:32:59;;;;;;;567.47;504.83;;;;;;;;;;4974003;28;20026;-75
2021/07/29 09:35:36;;;;;;;574.95;512.30;;;;;;;;;;4978915;28;20888;-75
2021/07/29 09:38:03;;;;;;;586.70;523.72;;;;;;;;;;4971199;28;20038;-76
2021/07/29 09:40:42;;;;;;;596.50;533.55;;;;;;;;;;4974772;28;20046;-76
2021/07/29 09:43:11;;;;;;;607.65;544.33;;;;;;;;;;4980612;28;20160;-76
2021/07/29 09:45:38;;;;;;;613.30;550.30;;;;;;;;;;4972465;28;20027;-75
2021/07/29 09:48:06;;;;;;;638.70;575.20;;;;;;;;;;4977689;28;20500;-76
2021/07/29 09:50:33;;;;;;;637.35;573.78;;;;;;;;;;4982723;28;20118;-76
2021/07/29 09:52:59;;;;;;;634.58;571.25;;;;;;;;;;4961831;28;20041;-77
2021/07/29 09:55:26;;;;;;;625.97;562.90;;;;;;;;;;4963542;28;20092;-76
2021/07/29 09:57:52;;;;;;;617.50;554.83;;;;;;;;;;4964026;28;20052;-76
2021/07/29 10:00:18;;;;;;;624.25;561.08;;;;;;;;;;4963869;28;20050;-78
2021/07/29 10:02:44;;;;;;;613.78;550.97;;;;;;;;;;4970258;28;20081;-76
2021/07/29 10:05:11;;;;;;;613.92;551.13;;;;;;;;;;4974282;28;20035;-76
2021/07/29 10:07:39;;;;;;;620.65;557.50;;;;;;;;;;4957227;28;20432;-76
2021/07/29 10:10:07;;;;;;;614.00;551.30;;;;;;;;;;4984255;28;20050;-74
2021/07/29 10:12:34;;;;;;;622.05;559.17;;;;;;;;;;4958242;28;20031;-75
2021/07/29 10:15:00;;;;;;;628.95;565.95;;;;;;;;;;4978667;28;20023;-77
2021/07/29 10:17:35;;;;;;;638.72;575.80;;;;;;;;;;4980454;28;20553;-75
2021/07/29 10:20:15;;;;;;;640.40;577.25;;;;;;;;;;4968598;28;20150;-75
2021/07/29 10:22:41;;;;;;;638.80;575.92;;;;;;;;;;4960496;28;20441;-76
2021/07/29 10:25:09;;;;;;;651.05;587.67;;;;;;;;;;4978242;28;20479;-75
2021/07/29 10:27:36;;;;;;;664.47;601.00;;;;;;;;;;4962447;28;20022;-76
2021/07/29 10:30:20;;;;;;;671.60;607.85;;;;;;;;;;4956270;28;20472;-76
2021/07/29 10:32:49;;;;;;;661.17;598.10;;;;;;;;;;4968421;28;20113;-77
2021/07/29 10:35:33;;;;;;;672.13;608.83;;;;;;;;;;4963753;28;20037;-75
2021/07/29 10:37:59;;;;;;;676.97;613.35;;;;;;;;;;4983303;28;20038;-76
2021/07/29 10:40:35;;;;;;;696.40;632.63;;;;;;;;;;4980374;28;20042;-77
2021/07/29 10:43:20;;;;;;;709.92;645.72;;;;;;;;;;4957794;28;20027;-75
2021/07/29 10:45:51;;;;;;;719.88;655.67;;;;;;;;;;4977073;28;20018;-76
2021/07/29 10:48:35;;;;;;;729.72;665.50;;;;;;;;;;4961220;28;20219;-77
2021/07/29 10:51:31;;;;;;;718.67;654.78;;;;;;;;;;4981904;28;20026;-75
2021/07/29 10:53:57;;;;;;;712.08;648.35;;;;;;;;;;4966644;28;20088;-73
2021/07/29 10:56:24;;;;;;;736.67;672.22;;;;;;;;;;4981145;28;20018;-75
2021/07/29 10:58:51;;;;;;;762.92;697.65;;;;;;;;;;4972170;28;20031;-74
2021/07/29 11:01:18;;;;;;;775.35;709.97;;;;;;;;;;4962520;28;20141;-74
2021/07/29 11:03:50;;;;;;;768.05;702.83;;;;;;;;;;4989073;28;20027;-74
2021/07/29 11:06:28;;;;;;;766.10;701.15;;;;;;;;;;4973733;28;20031;-74
2021/07/29 11:08:54;;;;;;;766.72;702.10;;;;;;;;;;5071395;28;20020;-77
2021/07/29 11:11:20;;;;;;;777.22;712.15;;;;;;;;;;5031663;28;20503;-75
2021/07/29 11:13:48;;;;;;;774.95;709.75;;;;;;;;;;5001446;28;20030;-76
2021/07/29 11:16:14;;;;;;;752.47;687.78;;;;;;;;;;4976420;28;20038;-75
2021/07/29 11:18:41;;;;;;;734.50;670.15;;;;;;;;;;4976710;28;20138;-73
2021/07/29 11:21:15;;;;;;;728.95;664.67;;;;;;;;;;4977721;28;20121;-77
2021/07/29 11:23:41;;;;;;;741.28;676.85;;;;;;;;;;4977533;28;20471;-76
2021/07/29 11:26:07;;;;;;;743.55;679.03;;;;;;;;;;4970547;28;20026;-78
2021/07/29 11:28:33;;;;;;;746.28;681.75;;;;;;;;;;4976614;28;20034;-77
2021/07/29 11:31:00;;;;;;;757.67;692.83;;;;;;;;;;4978850;28;20035;-74
2021/07/29 11:33:26;;;;;;;759.38;695.17;;;;;;;;;;4956817;28;20092;-76
2021/07/29 11:35:53;;;;;;;784.65;719.72;;;;;;;;;;4974863;28;20037;-74
2021/07/29 11:38:20;;;;;;;799.70;734.20;;;;;;;;;;4957359;28;20038;-75
2021/07/29 11:40:46;;;;;;;800.88;735.50;;;;;;;;;;4971027;28;20043;-75
2021/07/29 11:43:22;;;;;;;801.25;735.95;;;;;;;;;;4976621;28;20038;-75
2021/07/29 11:45:48;;;;;;;793.25;728.28;;;;;;;;;;4977922;28;20034;-76
2021/07/29 11:48:24;;;;;;;781.88;717.25;;;;;;;;;;4962495;28;20038;-76
2021/07/29 11:50:52;;;;;;;795.88;730.45;;;;;;;;;;4958511;28;20055;-75
2021/07/29 11:53:19;;;;;;;792.20;727.40;;;;;;;;;;4979669;28;20027;-75
2021/07/29 11:55:54;;;;;;;796.17;731.03;;;;;;;;;;4969572;28;20019;-76
2021/07/29 11:58:21;;;;;;;794.00;729.17;;;;;;;;;;4974464;28;20354;-75
2021/07/29 12:00:49;;;;;;;781.95;717.58;;;;;;;;;;4975929;28;20061;-74
2021/07/29 12:03:32;;;;;;;787.60;722.63;;;;;;;;;;4975704;28;20373;-76
2021/07/29 12:05:59;;;;;;;788.28;723.30;;;;;;;;;;4970896;28;20346;-75
2021/07/29 12:08:25;;;;;;;770.92;706.90;;;;;;;;;;4975305;28;20027;-74
2021/07/29 12:10:56;;;;;;;751.88;688.15;;;;;;;;;;4977750;28;20110;-75
2021/07/29 12:13:23;;;;;;;734.75;671.05;;;;;;;;;;4967539;28;20042;-76
2021/07/29 12:15:53;;;;;;;729.30;665.47;;;;;;;;;;4957187;28;20452;-76
2021/07/29 12:18:20;;;;;;;729.47;665.22;;;;;;;;;;4974529;28;20112;-75
2021/07/29 12:20:51;;;;;;;732.72;668.60;;;;;;;;;;4962432;28;20115;-75
2021/07/29 12:23:17;;;;;;;742.67;678.53;;;;;;;;;;4977867;28;20053;-76
2021/07/29 12:25:44;;;;;;;775.30;710.38;;;;;;;;;;4981888;28;20031;-79
2021/07/29 12:28:10;;;;;;;779.28;714.95;;;;;;;;;;4978657;28;20532;-77
2021/07/29 12:30:38;;;;;;;792.90;728.20;;;;;;;;;;4977292;28;20058;-76
2021/07/29 12:33:10;;;;;;;789.80;725.03;;;;;;;;;;4960212;28;20026;-77
2021/07/29 12:35:37;;;;;;;782.35;718.00;;;;;;;;;;4959148;28;20058;-76
2021/07/29 12:38:03;;;;;;;773.55;709.42;;;;;;;;;;4958254;28;20515;-76
2021/07/29 12:40:33;;;;;;;751.90;687.45;;;;;;;;;;4967438;28;20034;-75
2021/07/29 12:42:59;;;;;;;;;;;;;;;;;;4971997;28;20031;-78
2021/07/29 12:45:25;;;;;;;720.92;657.80;;;;;;;;;;4964483;28;19946;-77
2021/07/29 12:48:09;;;;;;;725.70;662.47;;;;;;;;;;4946363;28;20543;-77
2021/07/29 12:50:38;;;;;;;728.47;665.03;;;;;;;;;;4943608;28;20055;-77
2021/07/29 12:53:23;;;;;;;736.75;673.40;;;;;;;;;;4948481;28;20038;-77
2021/07/29 12:55:50;;;;;;;736.45;672.97;;;;;;;;;;4943698;28;20369;-77
2021/07/29 12:58:16;;;;;;;755.70;691.60;;;;;;;;;;4943996;28;20412;-77
2021/07/29 13:00:43;;;;;;;769.63;705.47;;;;;;;;;;4946280;28;20649;-75
2021/07/29 13:03:27;;;;;;;782.30;718.10;;;;;;;;;;4963847;28;20388;-76
2021/07/29 13:05:56;;;;;;;811.67;746.38;;;;;;;;;;4955431;28;20039;-75
2021/07/29 13:08:23;;;;;;;810.90;746.28;;;;;;;;;;4943362;28;20089;-77
2021/07/29 13:10:49;;;;;;;803.10;738.78;;;;;;;;;;4963770;28;20050;-75
2021/07/29 13:13:18;;;;;;;772.95;709.28;;;;;;;;;;4947962;28;20353;-76
2021/07/29 13:15:43;;;;;;;745.70;682.60;;;;;;;;;;4964640;28;20049;-76
2021/07/29 13:18:09;;;;;;;726.30;663.28;;;;;;;;;;4970809;28;20034;-75
2021/07/29 13:20:35;;;;;;;698.25;635.58;;;;;;;;;;4976941;28;20133;-80
2021/07/29 13:23:02;;;;;;;684.38;621.75;;;;;;;;;;4956317;28;20108;-75
2021/07/29 13:25:28;;;;;;;693.95;630.45;;;;;;;;;;4976188;28;20106;-76
2021/07/29 13:27:54;;;;;;;704.78;641.65;;;;;;;;;;4961047;28;20048;-75
2021/07/29 13:30:20;;;;;;;716.97;653.83;;;;;;;;;;4961186;28;20027;-75
2021/07/29 13:32:46;;;;;;;732.97;669.53;;;;;;;;;;4973005;28;20026;-75
2021/07/29 13:35:12;;;;;;;751.10;687.03;;;;;;;;;;4974508;28;20261;-74
2021/07/29 13:37:39;;;;;;;751.15;687.45;;;;;;;;;;4957392;28;20426;-77
2021/07/29 13:40:05;;;;;;;740.08;676.65;;;;;;;;;;4985034;28;20387;-76
2021/07/29 13:42:32;;;;;;;721.97;658.67;;;;;;;;;;4960776;28;20027;-76
2021/07/29 13:45:16;;;;;;;702.17;639.28;;;;;;;;;;4964544;28;20080;-76
2021/07/29 13:47:46;;;;;;;679.47;616.38;;;;;;;;;;4974259;28;20322;-76
2021/07/29 13:50:12;;;;;;;677.00;613.95;;;;;;;;;;4977531;28;20027;-76
2021/07/29 13:52:40;;;;;;;684.03;620.83;;;;;;;;;;4976241;28;20034;-76
2021/07/29 13:55:06;;;;;;;705.53;642.00;;;;;;;;;;4977138;28;20061;-77
2021/07/29 13:57:32;;;;;;;717.15;653.67;;;;;;;;;;4962853;28;20873;-76